createdAt,value
2023-01-23T00:00:27.220Z,0.31
2023-01-23T00:02:54.502Z,0.34
2023-01-23T00:05:21.856Z,0.29
2023-01-23T00:07:49.275Z,0.37
2023-01-23T00:10:17.067Z,0.34
2023-01-23T00:12:46.095Z,0.37
2023-01-23T00:15:13.975Z,0.39
2023-01-23T00:17:42.099Z,0.39
2023-01-23T00:20:13.422Z,0.42
2023-01-23T00:22:41.013Z,0.39
2023-01-23T00:25:08.670Z,0.42
2023-01-23T00:27:35.966Z,0.42
2023-01-23T00:30:04.666Z,0.41
2023-01-23T00:32:32.046Z,0.44
2023-01-23T00:35:02.649Z,0.42
2023-01-23T00:37:30.012Z,0.41
2023-01-23T00:39:57.361Z,0.44
2023-01-23T00:42:24.833Z,0.36
2023-01-23T00:44:52.167Z,0.43
2023-01-23T00:47:19.459Z,0.42
2023-01-23T00:49:48.702Z,0.39
2023-01-23T00:52:15.975Z,0.46
2023-01-23T00:54:43.451Z,0.19
2023-01-23T00:57:10.852Z,0.46
2023-01-23T00:59:38.184Z,0.42
2023-01-23T01:02:05.514Z,0.41
2023-01-23T01:04:33.039Z,0.42
2023-01-23T01:07:03.494Z,0.45
2023-01-23T01:09:30.957Z,0.36
2023-01-23T01:11:58.703Z,0.41
2023-01-23T01:14:26.000Z,0.40
2023-01-23T01:16:53.393Z,0.36
2023-01-23T01:19:21.252Z,0.40
2023-01-23T01:21:48.518Z,0.44
2023-01-23T01:24:15.944Z,0.44
2023-01-23T01:26:43.365Z,0.38
2023-01-23T01:29:10.614Z,0.41
2023-01-23T01:31:37.890Z,0.47
2023-01-23T01:34:05.182Z,0.49
2023-01-23T01:36:32.450Z,0.49
2023-01-23T01:38:59.825Z,0.47
2023-01-23T01:41:27.999Z,0.41
2023-01-23T01:43:57.420Z,0.42
2023-01-23T01:46:27.361Z,0.40
2023-01-23T01:49:15.243Z,0.40
2023-01-23T01:52:14.912Z,0.39
2023-01-23T01:54:46.204Z,0.39
2023-01-23T01:57:38.060Z,0.35
2023-01-23T02:00:10.909Z,0.32
2023-01-23T02:02:49.764Z,0.27
2023-01-23T02:05:30.354Z,0.28
2023-01-23T02:08:05.885Z,0.29
2023-01-23T02:10:35.141Z,0.28
2023-01-23T02:13:31.448Z,0.28
2023-01-23T02:16:01.226Z,0.26
2023-01-23T02:18:31.883Z,0.25
2023-01-23T02:21:05.945Z,0.28
2023-01-23T02:23:48.573Z,0.27
2023-01-23T02:26:27.950Z,0.25
2023-01-23T02:28:56.297Z,0.17
2023-01-23T02:31:27.902Z,0.24
2023-01-23T02:33:58.376Z,0.25
2023-01-23T02:36:27.175Z,0.25
2023-01-23T02:39:09.025Z,0.16
2023-01-23T02:41:41.037Z,0.19
2023-01-23T02:44:32.530Z,0.22
2023-01-23T02:47:08.400Z,0.21
2023-01-23T02:49:35.922Z,0.13
2023-01-23T02:52:06.928Z,0.14
2023-01-23T02:54:36.133Z,0.15
2023-01-23T02:57:03.718Z,0.14
2023-01-23T02:59:50.002Z,0.14
2023-01-23T03:02:17.603Z,0.16
2023-01-23T03:04:44.881Z,0.17
2023-01-23T03:07:12.173Z,0.18
2023-01-23T03:09:39.905Z,0.09
2023-01-23T03:12:07.744Z,0.19
2023-01-23T03:14:35.155Z,0.17
2023-01-23T03:17:02.365Z,0.15
2023-01-23T03:19:34.115Z,0.14
2023-01-23T03:22:01.386Z,0.17
2023-01-23T03:24:28.802Z,0.14
2023-01-23T03:26:56.246Z,0.09
2023-01-23T03:29:45.260Z,0.10
2023-01-23T03:32:15.760Z,0.14
2023-01-23T03:34:44.782Z,0.13
2023-01-23T03:37:12.652Z,0.13
2023-01-23T03:40:01.164Z,0.14
2023-01-23T03:42:28.287Z,0.12
2023-01-23T03:44:57.800Z,0.13
2023-01-23T03:47:28.058Z,0.14
2023-01-23T03:49:55.984Z,0.18
2023-01-23T03:52:24.330Z,0.21
2023-01-23T03:54:51.780Z,0.17
2023-01-23T03:57:19.351Z,0.16
2023-01-23T04:00:05.514Z,0.16
2023-01-23T04:02:45.440Z,0.13
2023-01-23T04:05:14.423Z,0.09
2023-01-23T04:07:41.576Z,0.04
2023-01-23T04:10:10.767Z,0.05
2023-01-23T04:12:39.640Z,0.00
2023-01-23T04:15:08.154Z,0.02
2023-01-23T04:17:35.218Z,0.04
2023-01-23T04:20:04.389Z,0.07
2023-01-23T04:22:32.095Z,0.07
2023-01-23T04:24:59.228Z,0.04
2023-01-23T04:27:26.287Z,0.07
2023-01-23T04:29:55.454Z,0.07
2023-01-23T04:32:22.560Z,0.11
2023-01-23T04:34:49.694Z,0.11
2023-01-23T04:37:17.743Z,0.10
2023-01-23T04:39:45.943Z,0.16
2023-01-23T04:42:13.999Z,0.17
2023-01-23T04:44:52.313Z,0.18
2023-01-23T04:47:39.415Z,0.16
2023-01-23T04:50:10.547Z,0.18
2023-01-23T04:52:39.139Z,0.16
2023-01-23T04:55:06.839Z,0.16
2023-01-23T04:57:33.864Z,0.14
2023-01-23T05:00:20.133Z,0.17
2023-01-23T05:02:48.706Z,0.16
2023-01-23T05:05:21.402Z,0.13
2023-01-23T05:07:51.525Z,0.11
2023-01-23T05:10:19.385Z,0.15
2023-01-23T05:12:48.120Z,0.17
2023-01-23T05:15:15.514Z,0.20
2023-01-23T05:17:44.725Z,0.20
2023-01-23T05:20:13.477Z,0.24
2023-01-23T05:22:52.777Z,0.25
2023-01-23T05:25:27.126Z,0.25
2023-01-23T05:27:55.684Z,0.27
2023-01-23T05:30:23.960Z,0.26
2023-01-23T05:32:55.765Z,0.29
2023-01-23T05:35:22.871Z,0.32
2023-01-23T05:37:53.794Z,0.30
2023-01-23T05:40:23.847Z,0.24
2023-01-23T05:43:23.239Z,0.23
2023-01-23T05:46:17.180Z,0.20
2023-01-23T05:48:51.916Z,0.23
2023-01-23T05:51:21.347Z,0.25
2023-01-23T05:53:48.971Z,0.27
2023-01-23T05:56:17.714Z,0.18
2023-01-23T05:59:05.529Z,0.28
2023-01-23T06:01:58.786Z,0.15
2023-01-23T06:04:55.840Z,0.28
2023-01-23T06:07:37.798Z,0.19
2023-01-23T06:10:09.839Z,0.20
2023-01-23T06:12:37.575Z,0.16
2023-01-23T06:15:05.462Z,0.17
2023-01-23T06:17:32.928Z,0.21
2023-01-23T06:20:00.087Z,0.21
2023-01-23T06:22:28.650Z,0.24
2023-01-23T06:25:11.038Z,0.24
2023-01-23T06:27:38.340Z,0.28
2023-01-23T06:30:08.799Z,0.32
2023-01-23T06:32:41.860Z,0.35
2023-01-23T06:35:10.644Z,0.35
2023-01-23T06:37:40.835Z,0.33
2023-01-23T06:40:13.546Z,0.32
2023-01-23T06:42:45.594Z,0.38
2023-01-23T06:45:13.000Z,0.40
2023-01-23T06:47:40.093Z,0.38
2023-01-23T06:50:08.299Z,0.39
2023-01-23T06:52:37.947Z,0.39
2023-01-23T06:55:06.882Z,0.36
2023-01-23T06:57:35.081Z,0.37
2023-01-23T07:00:03.939Z,0.30
2023-01-23T07:02:32.432Z,0.40
2023-01-23T07:04:59.814Z,0.43
2023-01-23T07:07:27.446Z,0.37
2023-01-23T07:09:54.591Z,0.40
2023-01-23T07:12:24.534Z,0.39
2023-01-23T07:14:51.769Z,0.37
2023-01-23T07:17:24.163Z,0.36
2023-01-23T07:19:51.933Z,0.37
2023-01-23T07:22:21.125Z,0.41
2023-01-23T07:24:48.759Z,0.42
2023-01-23T07:27:15.969Z,0.43
2023-01-23T07:29:43.367Z,0.48
2023-01-23T07:32:11.324Z,0.49
2023-01-23T07:34:38.800Z,0.47
2023-01-23T07:37:06.116Z,0.54
2023-01-23T07:39:33.228Z,0.54
2023-01-23T07:42:00.567Z,0.55
2023-01-23T07:44:28.956Z,0.62
2023-01-23T07:46:57.182Z,0.59
2023-01-23T07:49:24.223Z,0.65
2023-01-23T07:51:51.260Z,0.66
2023-01-23T07:54:18.348Z,0.66
2023-01-23T07:56:45.399Z,0.75
2023-01-23T07:59:13.530Z,0.79
2023-01-23T08:01:40.581Z,0.80
2023-01-23T08:04:07.746Z,0.79
2023-01-23T08:06:34.971Z,0.77
2023-01-23T08:09:02.053Z,0.72
2023-01-23T08:11:29.123Z,0.72
2023-01-23T08:13:56.275Z,0.67
2023-01-23T08:16:23.348Z,0.67
2023-01-23T08:18:50.482Z,0.68
2023-01-23T08:21:17.925Z,0.72
2023-01-23T08:23:46.528Z,0.72
2023-01-23T08:26:16.086Z,0.76
2023-01-23T08:28:45.025Z,0.79
2023-01-23T08:31:13.684Z,0.83
2023-01-23T08:33:41.311Z,0.80
2023-01-23T08:36:11.500Z,0.88
2023-01-23T08:38:38.785Z,0.85
2023-01-23T08:41:06.836Z,0.79
2023-01-23T08:43:34.036Z,0.82
2023-01-23T08:46:01.487Z,0.80
2023-01-23T08:48:29.192Z,0.80
2023-01-23T08:51:01.916Z,0.84
2023-01-23T08:53:30.131Z,0.83
2023-01-23T08:56:04.969Z,0.87
2023-01-23T08:58:32.136Z,0.89
2023-01-23T09:00:59.774Z,0.94
2023-01-23T09:03:27.807Z,0.98
2023-01-23T09:05:55.020Z,0.97
2023-01-23T09:08:21.986Z,0.91
2023-01-23T09:10:49.046Z,0.95
2023-01-23T09:13:16.368Z,0.92
2023-01-23T09:15:43.439Z,0.88
2023-01-23T09:18:10.568Z,0.88
2023-01-23T09:20:38.741Z,0.84
2023-01-23T09:23:05.838Z,0.89
2023-01-23T09:25:32.914Z,0.91
2023-01-23T09:27:59.968Z,0.92
2023-01-23T09:30:27.099Z,0.92
2023-01-23T09:32:54.304Z,0.89
2023-01-23T09:35:23.513Z,0.95
2023-01-23T09:38:00.102Z,1.00
2023-01-23T09:40:30.733Z,1.00
2023-01-23T09:43:03.447Z,1.02
2023-01-23T09:45:32.694Z,1.02
2023-01-23T09:48:23.059Z,1.01
2023-01-23T09:51:16.417Z,1.04
2023-01-23T09:53:43.561Z,1.03
2023-01-23T09:56:31.357Z,1.07
2023-01-23T09:59:01.254Z,1.10
2023-01-23T10:01:31.000Z,1.15
2023-01-23T10:04:02.497Z,1.15
2023-01-23T10:06:32.665Z,1.09
2023-01-23T10:09:28.177Z,1.15
2023-01-23T10:12:13.361Z,1.19
2023-01-23T10:14:58.957Z,1.20
2023-01-23T10:17:44.095Z,1.24
2023-01-23T10:20:20.083Z,1.24
2023-01-23T10:23:08.749Z,1.28
2023-01-23T10:25:40.518Z,1.29
2023-01-23T10:28:38.227Z,1.24
2023-01-23T10:31:16.404Z,1.25
2023-01-23T10:33:48.330Z,1.24
2023-01-23T10:36:47.787Z,1.20
2023-01-23T10:39:25.668Z,1.22
2023-01-23T10:42:01.495Z,1.26
2023-01-23T10:44:29.311Z,1.23
2023-01-23T10:47:03.828Z,1.25
2023-01-23T10:49:35.817Z,1.27
2023-01-23T10:52:03.207Z,1.29
2023-01-23T10:54:32.627Z,1.14
2023-01-23T10:57:03.278Z,1.30
2023-01-23T10:59:35.986Z,1.33
2023-01-23T11:02:15.262Z,1.35
2023-01-23T11:04:44.524Z,1.38
2023-01-23T11:07:23.736Z,1.39
2023-01-23T11:09:56.684Z,1.45
2023-01-23T11:12:29.856Z,1.43
2023-01-23T11:15:26.350Z,1.42
2023-01-23T11:17:56.265Z,1.44
2023-01-23T11:20:36.104Z,1.48
2023-01-23T11:23:09.429Z,1.56
2023-01-23T11:25:48.547Z,1.63
2023-01-23T11:28:34.204Z,1.69
2023-01-23T11:31:14.694Z,1.73
2023-01-23T11:34:05.534Z,1.78
2023-01-23T11:36:58.534Z,1.79
2023-01-23T11:39:36.433Z,1.78
2023-01-23T11:42:04.421Z,1.74
2023-01-23T11:44:45.096Z,1.71
2023-01-23T11:47:40.767Z,1.69
2023-01-23T11:50:54.415Z,1.68
2023-01-23T11:53:41.859Z,1.65
2023-01-23T11:56:44.160Z,1.65
2023-01-23T11:59:53.140Z,1.64
2023-01-23T12:02:32.423Z,1.68
2023-01-23T12:05:06.152Z,1.69
2023-01-23T12:07:48.154Z,1.71
2023-01-23T12:10:22.237Z,1.72
2023-01-23T12:12:50.755Z,1.73
2023-01-23T12:15:42.166Z,1.75
2023-01-23T12:18:57.152Z,1.71
2023-01-23T12:21:44.181Z,1.65
2023-01-23T12:24:47.658Z,1.64
2023-01-23T12:27:27.075Z,1.67
2023-01-23T12:30:12.593Z,1.68
2023-01-23T12:33:12.926Z,1.65
2023-01-23T12:35:48.184Z,1.63
2023-01-23T12:38:40.241Z,1.65
2023-01-23T12:41:10.097Z,1.63
2023-01-23T12:43:55.506Z,1.67
2023-01-23T12:46:34.281Z,1.63
2023-01-23T12:49:13.987Z,1.64
2023-01-23T12:51:46.197Z,1.65
2023-01-23T12:54:20.528Z,1.68
2023-01-23T12:59:30.649Z,1.68
2023-01-23T13:02:30.851Z,1.64
2023-01-23T13:05:07.958Z,1.64
2023-01-23T13:07:56.049Z,1.67
2023-01-23T13:11:03.574Z,1.67
2023-01-23T13:13:31.342Z,1.59
2023-01-23T13:16:09.350Z,1.57
2023-01-23T13:18:57.670Z,1.49
2023-01-23T13:21:43.836Z,1.43
2023-01-23T13:25:12.076Z,1.46
2023-01-23T13:27:42.229Z,1.49
2023-01-23T13:30:27.250Z,1.48
2023-01-23T13:33:00.762Z,1.45
2023-01-23T13:35:40.058Z,1.45
2023-01-23T13:38:37.713Z,1.43
2023-01-23T13:41:04.891Z,1.40
2023-01-23T13:43:54.903Z,1.41
2023-01-23T14:21:56.313Z,1.37
2023-01-23T14:30:20.270Z,1.31
2023-01-23T14:32:47.408Z,1.32
2023-01-23T14:35:32.951Z,1.29
2023-01-23T14:38:05.332Z,1.25
2023-01-23T14:40:46.622Z,1.22
2023-01-23T14:46:13.001Z,1.27
2023-01-23T14:48:43.097Z,1.22
2023-01-23T14:51:30.466Z,1.26
2023-01-23T14:54:02.637Z,1.27
2023-01-23T14:56:36.357Z,1.24
2023-01-23T14:59:07.278Z,1.22
2023-01-23T15:01:36.034Z,1.05
2023-01-23T15:04:06.110Z,1.13
2023-01-23T15:06:36.155Z,1.13
2023-01-23T15:09:17.189Z,1.10
2023-01-23T15:11:45.283Z,1.09
2023-01-23T15:14:25.457Z,1.06
2023-01-23T15:16:59.025Z,1.04
2023-01-23T15:19:26.672Z,1.03
2023-01-23T15:22:25.671Z,0.99
2023-01-23T15:24:53.050Z,0.99
2023-01-23T15:27:36.929Z,1.02
2023-01-23T15:30:31.814Z,0.98
2023-01-23T15:33:06.188Z,0.94
2023-01-23T15:35:38.333Z,0.93
2023-01-23T15:38:08.683Z,0.82
2023-01-23T15:40:38.399Z,0.95
2023-01-23T15:43:11.068Z,1.00
2023-01-23T15:45:38.297Z,1.02
2023-01-23T15:48:05.884Z,1.00
2023-01-23T15:50:33.056Z,0.91
2023-01-23T15:53:00.149Z,0.97
2023-01-23T15:55:28.919Z,0.95
2023-01-23T15:57:56.665Z,1.02
2023-01-23T16:00:27.295Z,0.99
2023-01-23T16:02:57.355Z,1.00
2023-01-23T16:05:27.507Z,0.97
2023-01-23T16:07:55.825Z,0.95
2023-01-23T16:10:26.242Z,1.00
2023-01-23T16:12:55.868Z,1.01
2023-01-23T16:15:28.108Z,0.98
2023-01-23T16:17:55.531Z,0.97
2023-01-23T16:20:38.693Z,1.01
2023-01-23T16:23:15.654Z,0.98
2023-01-23T16:25:45.656Z,1.01
2023-01-23T16:28:19.311Z,1.00
2023-01-23T16:30:47.632Z,0.99
2023-01-23T16:33:15.329Z,0.95
2023-01-23T16:35:42.808Z,0.93
2023-01-23T16:38:30.199Z,0.89
2023-01-23T16:40:59.860Z,0.89
2023-01-23T16:43:27.626Z,0.92
2023-01-23T16:45:56.610Z,0.91
2023-01-23T16:48:27.708Z,0.88
2023-01-23T16:51:17.604Z,0.94
2023-01-23T16:53:52.463Z,0.94
2023-01-23T16:56:28.905Z,0.91
2023-01-23T16:58:56.289Z,0.92
2023-01-23T17:01:24.503Z,0.89
2023-01-23T17:03:58.705Z,0.91
2023-01-23T17:06:26.149Z,0.83
2023-01-23T17:08:53.858Z,0.89
2023-01-23T17:11:24.829Z,0.85
2023-01-23T17:13:58.767Z,0.86
2023-01-23T17:16:28.018Z,0.86
2023-01-23T17:18:57.697Z,0.84
2023-01-23T17:21:32.052Z,0.85
2023-01-23T17:23:59.234Z,0.79
2023-01-23T17:26:26.534Z,0.86
2023-01-23T17:28:53.949Z,0.86
2023-01-23T17:31:25.215Z,0.86
2023-01-23T17:33:52.895Z,0.78
2023-01-23T17:36:20.177Z,0.82
2023-01-23T17:38:47.707Z,0.84
2023-01-23T17:41:16.078Z,0.84
2023-01-23T17:43:48.498Z,0.86
2023-01-23T17:46:39.753Z,0.88
2023-01-23T17:49:31.364Z,0.89
2023-01-23T17:52:00.339Z,0.89
2023-01-23T17:54:27.714Z,0.83
2023-01-23T17:56:54.938Z,0.83
2023-01-23T17:59:22.138Z,0.68
2023-01-23T18:01:49.252Z,0.73
2023-01-23T18:04:19.336Z,0.79
2023-01-23T18:06:47.005Z,0.73
2023-01-23T18:09:14.458Z,0.81
2023-01-23T18:11:49.771Z,0.79
2023-01-23T18:14:33.752Z,0.77
2023-01-23T18:17:01.081Z,0.77
2023-01-23T18:19:28.364Z,0.72
2023-01-23T18:21:57.348Z,0.75
2023-01-23T18:24:30.633Z,0.62
2023-01-23T18:27:27.534Z,0.73
2023-01-23T18:30:03.755Z,0.73
2023-01-23T18:33:15.739Z,0.73
2023-01-23T18:35:54.964Z,0.71
2023-01-23T18:39:00.539Z,0.71
2023-01-23T18:41:28.985Z,0.73
2023-01-23T18:44:07.196Z,0.73
2023-01-23T18:46:34.430Z,0.69
2023-01-23T18:49:01.800Z,0.74
2023-01-23T18:51:54.815Z,0.74
2023-01-23T18:54:43.669Z,0.80
2023-01-23T18:57:32.295Z,0.79
2023-01-23T19:00:12.910Z,0.80
2023-01-23T19:02:50.709Z,0.79
2023-01-23T19:05:23.245Z,0.80
2023-01-23T19:07:50.864Z,0.77
2023-01-23T19:10:21.610Z,0.81
2023-01-23T19:12:54.228Z,0.79
2023-01-23T19:15:35.484Z,0.79
2023-01-23T19:18:08.547Z,0.76
2023-01-23T19:21:05.383Z,0.71
2023-01-23T19:23:51.926Z,0.74
2023-01-23T19:26:20.018Z,0.73
2023-01-23T19:28:47.458Z,0.75
2023-01-23T19:31:21.016Z,0.66
2023-01-23T19:33:49.155Z,0.65
2023-01-23T19:36:16.347Z,0.71
2023-01-23T19:38:43.611Z,0.68
2023-01-23T19:41:19.815Z,0.55
2023-01-23T19:43:52.310Z,0.61
2023-01-23T19:46:20.825Z,0.42
2023-01-23T19:48:48.199Z,0.62
2023-01-23T19:51:18.526Z,0.63
2023-01-23T19:53:46.609Z,0.65
2023-01-23T19:56:16.139Z,0.65
2023-01-23T19:58:43.291Z,0.63
2023-01-23T20:01:22.399Z,0.66
2023-01-23T20:03:50.190Z,0.70
2023-01-23T20:06:17.199Z,0.72
2023-01-23T20:08:44.326Z,0.70
2023-01-23T20:11:12.306Z,0.69
2023-01-23T20:13:43.137Z,0.62
2023-01-23T20:16:17.595Z,0.60
2023-01-23T20:18:48.260Z,0.46
2023-01-23T20:21:17.116Z,0.62
2023-01-23T20:23:48.313Z,0.66
2023-01-23T20:26:17.481Z,0.49
2023-01-23T20:28:48.297Z,0.64
2023-01-23T20:31:16.018Z,0.68
2023-01-23T20:33:43.199Z,0.67
2023-01-23T20:36:11.349Z,0.65
2023-01-23T20:38:39.906Z,0.64
2023-01-23T20:41:15.248Z,0.63
2023-01-23T20:43:43.485Z,0.64
2023-01-23T20:46:12.098Z,0.61
2023-01-23T20:48:41.903Z,0.63
2023-01-23T20:51:09.809Z,0.63
2023-01-23T20:53:39.718Z,0.60
2023-01-23T20:56:11.279Z,0.57
2023-01-23T20:59:00.151Z,0.59
2023-01-23T21:01:30.214Z,0.64
2023-01-23T21:03:57.363Z,0.65
2023-01-23T21:06:24.442Z,0.62
2023-01-23T21:08:51.546Z,0.61
2023-01-23T21:11:20.257Z,0.58
2023-01-23T21:13:53.753Z,0.59
2023-01-23T21:16:20.997Z,0.53
2023-01-23T21:18:48.469Z,0.59
2023-01-23T21:21:18.464Z,0.62
2023-01-23T21:23:49.007Z,0.62
2023-01-23T21:26:22.564Z,0.65
2023-01-23T21:28:51.019Z,0.65
2023-01-23T21:31:22.105Z,0.37
2023-01-23T21:33:50.039Z,0.61
2023-01-23T21:36:20.633Z,0.63
2023-01-23T21:38:48.248Z,0.63
2023-01-23T21:41:15.798Z,0.64
2023-01-23T21:43:43.037Z,0.65
2023-01-23T21:46:10.693Z,0.57
2023-01-23T21:48:37.910Z,0.57
2023-01-23T21:51:12.250Z,0.61
2023-01-23T21:53:42.862Z,0.64
2023-01-23T21:56:10.969Z,0.64
2023-01-23T21:58:38.198Z,0.62
2023-01-23T22:01:30.198Z,0.62
2023-01-23T22:04:09.315Z,0.63
2023-01-23T22:06:38.507Z,0.63
2023-01-23T22:09:07.744Z,0.61
2023-01-23T22:11:35.360Z,0.52
2023-01-23T22:14:02.800Z,0.56
2023-01-23T22:16:46.854Z,0.51
2023-01-23T22:19:16.803Z,0.59
2023-01-23T22:21:46.645Z,0.59
2023-01-23T22:24:15.340Z,0.60
2023-01-23T22:26:42.920Z,0.61
2023-01-23T22:29:12.338Z,0.63
2023-01-23T22:31:39.500Z,0.62
2023-01-23T22:34:06.640Z,0.69
2023-01-23T22:36:33.693Z,0.55
2023-01-23T22:39:00.901Z,0.71
2023-01-23T22:41:28.818Z,0.70
2023-01-23T22:43:56.891Z,0.74
2023-01-23T22:46:24.275Z,0.72
2023-01-23T22:48:51.915Z,0.70
2023-01-23T22:51:24.211Z,0.67
2023-01-23T22:53:52.453Z,0.64
2023-01-23T22:56:19.597Z,0.65
2023-01-23T22:58:47.781Z,0.67
2023-01-23T23:01:15.493Z,0.65
2023-01-23T23:03:43.269Z,0.62
2023-01-23T23:06:13.874Z,0.66
2023-01-23T23:08:41.254Z,0.70
2023-01-23T23:11:13.836Z,0.71
2023-01-23T23:13:41.289Z,0.72
2023-01-23T23:16:12.171Z,0.72
2023-01-23T23:18:39.505Z,0.71
2023-01-23T23:21:09.825Z,0.72
2023-01-23T23:23:37.116Z,0.70
2023-01-23T23:26:05.520Z,0.72
2023-01-23T23:28:32.991Z,0.68
2023-01-23T23:31:00.085Z,0.70
2023-01-23T23:33:27.847Z,0.70
2023-01-23T23:35:55.108Z,0.71
2023-01-23T23:38:22.343Z,0.70
2023-01-23T23:40:57.673Z,0.69
2023-01-23T23:43:25.005Z,0.66
2023-01-23T23:45:57.603Z,0.64
2023-01-23T23:48:26.050Z,0.62
2023-01-23T23:50:53.862Z,0.55
2023-01-23T23:53:21.127Z,0.70
2023-01-23T23:55:48.901Z,0.68
2023-01-23T23:58:16.352Z,0.67
